Terminal Aerodrome Forecast
Issued by NWS Albany, NY

Home | Current Version | Previous Version | Text Only | Print | Product List | Glossary On
Versions: 1 2 3 4 5 6 7 8 9 10 11 12 13 14 15 16 17 18 19 20 21 22 23 24 25
000
FTUS41 KALY 161100
TAFALB
TAF
KALB 161130Z 1612/1712 09003KT 6SM -RA BR FEW050 OVC080
     FM161400 28007KT P6SM FEW025 BKN050
     FM161800 31006KT P6SM SCT050
     FM170000 30003KT P6SM SKC=

USA.gov is the U.S. government's official web portal to all federal, state and local government web resources and services.